Brenham, TX

11:06 AM CST on January 31, 2015 (GMT -0600)
K Star Ranch, 49TE | Change Station
CLOSE
Current Station
Personal Weather Station
Location: Brenham, TX
Elevation: 407 ft
Nearby Weather Stations

Elev 407 ft 30.28 °N, 96.46 °W | Updated 5 minutes ago

Partly Cloudy
Partly Cloudy
54.2 °F
Feels Like 54.2 °F
N
12.0
Wind Variable Wind from SE
Gusts 12.0 mph

Today
High -- | Low -- °F
--% Chance of Precip.
Yesterday
High -- | Low -- °F
Precip. -- in
7:17 AM 6:01 PM
Waxing Gibbous, 90% visible
Pressure 30.19 in
Visibility 10.0 miles
Clouds Clear
Dew Point 45 °F
Humidity 71%
Rainfall 0.00 in
Snow Depth Not available.
UV 4 out of 12
Pollen 8.30 out of 12
Air Quality Not available.
Flu Activity Not available.
METAR K11R 311655Z AUTO 11009KT 10SM CLR 14/08 A3019 RMK AO2 T01400080

More Conditions Fewer Conditions

Pressure 30.19 in
Visibility 10.0 miles
Clouds Clear
Dew Point 45 °F
Humidity 71%
Rainfall 0.00 in
Snow Depth Not available.
UV 4 out of 12
Pollen 8.30 out of 12
Air Quality Not available.
Flu Activity Not available.
METAR K11R 311655Z AUTO 11009KT 10SM CLR 14/08 A3019 RMK AO2 T01400080

More Conditions Fewer Conditions

10-Day Weather Forecast

Almanac

Astronomy

Jan. 31, 2015 Rise Set
Actual Time
Civil Twilight
Nautical Twilight
Astronomical Twilight
Moon
Length of Visible Light
Length of Day
Tomorrow will be .
, % of the Moon is Illuminated

Today's Extremes

State Highs State Lows

Community

WunderPhotos

Upload Photos

1,792,117 photos uploaded!

WunderBlogs® & News

Nearby

Air Quality

  Air Quality AQ Index Pollutant
Not available.

Snow Depth

Station Depth Elevation

Earthquake Activity

City Distance Mag. Time & Date
Minimum magnitude displayed is 2.5.

Coastal Water Temperatures

Place Temperature

Nearby Weather Stations